Adel, OR (97620)

4:18 PM PDT on July 27, 2016 (GMT -0700)
Alturas Municipal | | Change Station

Elev 4373 ft 41.49 °N, 120.56 °W | Updated 23 minutes ago

Clear
Clear
99 °F
Feels Like 99 °F
N
17
Wind Variable Wind from West
Gusts 24 mph

Today
High -- | Low -- °F
--% Chance of Precip.
Yesterday
High -- | Low -- °F
Precip. -- in
Pressure 29.93 in
Visibility 10.0 miles
Clouds Clear
Dew Point 22 °F
Humidity 6%
Rainfall 0.00 in
Snow Depth Not available.
5:47 AM 8:22 PM
Last Quarter, 38% visible
METAR KAAT 272255Z AUTO 27015G21KT 10SM CLR 37/M06 A3009 RMK AO2 SLP133 T03721056
Pressure 29.93 in
Visibility 10.0 miles
Clouds Clear
Dew Point 22 °F
Humidity 6%
Rainfall 0.00 in
Snow Depth Not available.
5:47 AM 8:22 PM
Last Quarter, 38% visible
METAR KAAT 272255Z AUTO 27015G21KT 10SM CLR 37/M06 A3009 RMK AO2 SLP133 T03721056

10-Day Weather Forecast

Almanac

Astronomy

Jul. 27, 2016 Rise Set
Actual Time
Civil Twilight
Nautical Twilight
Astronomical Twilight
Moon
Length of Visible Light
Length of Day
Tomorrow will be .
, % of the Moon is Illuminated

Today's Extremes

State Highs State Lows

Community

WunderPhotos

Upload Photos

1,927,954 photos uploaded!

WunderBlog® & News

Nearby

Air Quality

  Air Quality AQ Index Pollutant
Not available.

Snow Depth

Station Depth Elevation

Earthquake Activity

City Distance Mag. Time & Date
Minimum magnitude displayed is 2.5.

Coastal Water Temperatures

Place Temperature

Stations

Nearby Weather Stations

Station Location Temp. Windchill Dew Point Humidity Wind Precip. Elev Updated Type
                   

Watches & Warnings

There are currently no watches in effect.